Time;durP1;ratioP1;P1;durP2;ratioP2;P2;SDS_P1;SDS_P2;PMS_P1;PMS_P2;Temp;Humidity;BMP_temperature;BMP_pressure;BME280_temperature;BME280_humidity;BME280_pressure;Samples;Min_cycle;Max_cycle;Signal;HPM_P1;HPM_P2
2021/08/12 00:01:15;;;;;;;8.43;5.20;;;;;;;;;;758755;184;911625;-66
2021/08/12 00:03:41;;;;;;;10.23;5.80;;;;;;;;;;752239;184;918569;-66
2021/08/12 00:06:06;;;;;;;10.70;5.70;;;;;;;;;;754825;184;917827;-65
2021/08/12 00:08:32;;;;;;;9.47;5.60;;;;;;;;;;753671;184;919161;-66
2021/08/12 00:10:58;;;;;;;10.70;5.63;;;;;;;;;;760392;184;918130;-67
2021/08/12 00:13:24;;;;;;;6.57;4.93;;;;;;;;;;755943;184;919268;-66
2021/08/12 00:15:50;;;;;;;7.87;5.60;;;;;;;;;;753869;183;919234;-65
2021/08/12 00:18:16;;;;;;;9.17;5.97;;;;;;;;;;758128;184;919341;-67
2021/08/12 00:20:42;;;;;;;6.63;5.60;;;;;;;;;;755312;184;918638;-66
2021/08/12 00:23:07;;;;;;;9.13;6.40;;;;;;;;;;754209;184;918741;-66
2021/08/12 00:25:33;;;;;;;10.67;6.90;;;;;;;;;;758168;184;920044;-66
2021/08/12 00:27:59;;;;;;;10.00;7.20;;;;;;;;;;752989;184;918842;-65
2021/08/12 00:30:25;;;;;;;14.07;8.40;;;;;;;;;;752673;184;919673;-64
2021/08/12 00:32:51;;;;;;;9.90;7.70;;;;;;;;;;754572;184;918853;-65
2021/08/12 00:35:16;;;;;;;9.13;7.53;;;;;;;;;;761969;181;918543;-64
2021/08/12 00:37:42;;;;;;;10.03;7.40;;;;;;;;;;754286;184;954833;-64
2021/08/12 00:40:08;;;;;;;11.33;8.10;;;;;;;;;;754879;183;918766;-65
2021/08/12 00:42:34;;;;;;;11.98;8.75;;;;;;;;;;760790;183;919015;-65
2021/08/12 00:45:00;;;;;;;12.20;7.90;;;;;;;;;;756642;183;921513;-65
2021/08/12 00:47:26;;;;;;;10.47;7.97;;;;;;;;;;755971;183;919158;-65
2021/08/12 00:49:52;;;;;;;11.80;8.17;;;;;;;;;;760133;183;919339;-65
2021/08/12 00:52:18;;;;;;;12.43;7.73;;;;;;;;;;755621;183;1020541;-66
2021/08/12 00:54:43;;;;;;;10.95;8.35;;;;;;;;;;756099;183;918118;-65
2021/08/12 00:57:10;;;;;;;14.40;9.77;;;;;;;;;;756747;183;919237;-65
2021/08/12 00:59:36;;;;;;;14.60;9.87;;;;;;;;;;755864;183;917662;-64
2021/08/12 01:02:02;;;;;;;14.63;10.13;;;;;;;;;;754496;182;916914;-64
2021/08/12 01:04:27;;;;;;;12.33;9.93;;;;;;;;;;755294;181;918489;-65
2021/08/12 01:06:53;;;;;;;14.53;12.17;;;;;;;;;;761000;183;917125;-65
2021/08/12 01:09:22;;;;;;;17.77;11.67;;;;;;;;;;755853;183;915382;-65
2021/08/12 01:11:48;;;;;;;16.07;11.07;;;;;;;;;;754649;181;923049;-64
2021/08/12 01:14:16;;;;;;;12.30;8.38;;;;;;;;;;759621;184;919031;-64
2021/08/12 01:16:42;;;;;;;10.83;8.63;;;;;;;;;;748651;184;920013;-64
2021/08/12 01:19:14;;;;;;;10.35;9.27;;;;;;;;;;753375;184;919019;-64
2021/08/12 01:21:46;;;;;;;13.62;9.52;;;;;;;;;;751843;184;1021402;-64
2021/08/12 01:24:12;;;;;;;13.75;9.05;;;;;;;;;;755274;182;918455;-64
2021/08/12 01:26:38;;;;;;;12.53;9.43;;;;;;;;;;761893;182;920134;-65
2021/08/12 01:29:04;;;;;;;13.90;9.03;;;;;;;;;;755380;184;921057;-64
2021/08/12 01:31:46;;;;;;;11.57;8.60;;;;;;;;;;754840;181;918928;-65
2021/08/12 01:34:15;;;;;;;12.93;9.23;;;;;;;;;;755372;183;919931;-64
2021/08/12 01:36:41;;;;;;;10.67;8.37;;;;;;;;;;759919;184;915881;-65
2021/08/12 01:39:07;;;;;;;10.93;8.80;;;;;;;;;;756416;181;913620;-65
2021/08/12 01:41:33;;;;;;;10.77;9.20;;;;;;;;;;755310;184;915115;-65
2021/08/12 01:43:59;;;;;;;9.73;8.70;;;;;;;;;;758384;184;915877;-65
2021/08/12 01:46:25;;;;;;;12.03;8.23;;;;;;;;;;755772;184;900942;-65
2021/08/12 01:48:50;;;;;;;11.87;9.10;;;;;;;;;;757413;183;919333;-64
2021/08/12 01:51:16;;;;;;;16.80;10.17;;;;;;;;;;755892;183;918968;-65
2021/08/12 01:53:42;;;;;;;11.00;7.93;;;;;;;;;;762214;183;919221;-65
2021/08/12 01:56:08;;;;;;;11.93;8.87;;;;;;;;;;755679;183;918261;-65
2021/08/12 01:58:34;;;;;;;13.35;8.60;;;;;;;;;;754142;183;920055;-65
2021/08/12 02:01:00;;;;;;;11.37;8.73;;;;;;;;;;760190;184;918805;-65
2021/08/12 02:03:26;;;;;;;10.83;8.70;;;;;;;;;;756521;184;919100;-65
2021/08/12 02:05:51;;;;;;;16.93;8.03;;;;;;;;;;754839;184;918573;-65
2021/08/12 02:08:19;;;;;;;12.13;10.67;;;;;;;;;;759222;183;920538;-64
2021/08/12 02:10:45;;;;;;;11.63;10.23;;;;;;;;;;755706;183;919002;-65
2021/08/12 02:13:11;;;;;;;18.60;10.05;;;;;;;;;;755141;183;919042;-65
2021/08/12 02:15:36;;;;;;;12.80;9.90;;;;;;;;;;754347;181;919171;-64
2021/08/12 02:18:03;;;;;;;13.87;11.60;;;;;;;;;;753102;183;1021286;-65
2021/08/12 02:20:29;;;;;;;12.73;10.43;;;;;;;;;;753229;184;919413;-64
2021/08/12 02:22:55;;;;;;;15.67;10.70;;;;;;;;;;753684;184;925276;-64
2021/08/12 02:25:23;;;;;;;15.87;10.93;;;;;;;;;;760619;184;916692;-65
2021/08/12 02:27:49;;;;;;;14.60;11.77;;;;;;;;;;754810;184;921848;-63
2021/08/12 02:30:15;;;;;;;12.00;10.73;;;;;;;;;;753903;184;919706;-65
2021/08/12 02:32:41;;;;;;;13.77;10.17;;;;;;;;;;758970;184;918605;-64
2021/08/12 02:35:07;;;;;;;12.53;11.00;;;;;;;;;;754134;184;919234;-64
2021/08/12 02:37:33;;;;;;;16.85;11.25;;;;;;;;;;755289;184;920363;-65
2021/08/12 02:39:59;;;;;;;17.03;12.20;;;;;;;;;;753893;184;919401;-64
2021/08/12 02:42:25;;;;;;;14.00;11.87;;;;;;;;;;758236;184;918957;-65
2021/08/12 02:44:50;;;;;;;13.17;10.80;;;;;;;;;;752320;184;919974;-64
2021/08/12 02:47:16;;;;;;;14.87;12.13;;;;;;;;;;753407;184;920143;-65
2021/08/12 02:49:42;;;;;;;13.40;11.87;;;;;;;;;;759396;184;918805;-65
2021/08/12 02:52:08;;;;;;;13.80;10.77;;;;;;;;;;755580;184;919704;-65
2021/08/12 02:54:34;;;;;;;13.43;10.97;;;;;;;;;;754558;182;920843;-65
2021/08/12 02:57:00;;;;;;;18.47;12.10;;;;;;;;;;761077;181;919727;-64
2021/08/12 02:59:25;;;;;;;14.83;11.43;;;;;;;;;;755755;182;919155;-65
2021/08/12 03:01:52;;;;;;;13.03;11.63;;;;;;;;;;755832;184;919197;-65
2021/08/12 03:04:18;;;;;;;14.33;12.33;;;;;;;;;;756137;183;924316;-65
2021/08/12 03:06:44;;;;;;;18.73;13.00;;;;;;;;;;760553;181;918659;-65
2021/08/12 03:09:10;;;;;;;15.13;11.70;;;;;;;;;;753566;183;919371;-64
2021/08/12 03:11:35;;;;;;;16.37;11.00;;;;;;;;;;754417;182;919517;-65
2021/08/12 03:14:01;;;;;;;14.30;10.53;;;;;;;;;;761169;183;919319;-66
2021/08/12 03:16:27;;;;;;;16.10;11.00;;;;;;;;;;757115;183;918994;-68
2021/08/12 03:18:53;;;;;;;15.10;10.60;;;;;;;;;;756089;181;919350;-65
2021/08/12 03:21:19;;;;;;;17.27;10.73;;;;;;;;;;759525;183;918081;-66
2021/08/12 03:23:45;;;;;;;13.93;9.52;;;;;;;;;;757163;181;918639;-66
2021/08/12 03:26:10;;;;;;;16.80;10.20;;;;;;;;;;756960;181;919006;-66
2021/08/12 03:28:37;;;;;;;15.30;10.77;;;;;;;;;;759344;183;919082;-64
2021/08/12 03:31:03;;;;;;;15.53;9.47;;;;;;;;;;754610;182;918377;-66
2021/08/12 03:33:29;;;;;;;14.97;10.60;;;;;;;;;;753821;184;919090;-66
2021/08/12 03:35:55;;;;;;;17.43;10.30;;;;;;;;;;754448;184;919414;-66
2021/08/12 03:38:21;;;;;;;11.27;8.80;;;;;;;;;;760696;183;917433;-65
2021/08/12 03:40:47;;;;;;;13.20;7.80;;;;;;;;;;754824;184;918897;-68
2021/08/12 03:43:13;;;;;;;11.27;8.67;;;;;;;;;;753095;184;1018998;-66
2021/08/12 03:45:39;;;;;;;11.90;7.80;;;;;;;;;;758310;184;918689;-66
2021/08/12 03:48:05;;;;;;;10.00;7.13;;;;;;;;;;755464;181;918347;-66
2021/08/12 03:50:31;;;;;;;8.77;7.87;;;;;;;;;;754778;184;918814;-66
2021/08/12 03:52:57;;;;;;;9.53;7.57;;;;;;;;;;758509;184;919292;-66
2021/08/12 03:55:22;;;;;;;12.30;8.20;;;;;;;;;;752253;184;923882;-66
2021/08/12 03:57:48;;;;;;;11.10;8.20;;;;;;;;;;752662;184;919298;-67
2021/08/12 04:00:15;;;;;;;11.07;9.50;;;;;;;;;;752981;183;919020;-66
2021/08/12 04:02:41;;;;;;;10.07;8.10;;;;;;;;;;760039;184;911143;-65
2021/08/12 04:05:07;;;;;;;11.10;8.70;;;;;;;;;;755252;184;919073;-66
2021/08/12 04:07:33;;;;;;;10.13;7.45;;;;;;;;;;753878;184;1049404;-67
2021/08/12 04:09:59;;;;;;;11.45;8.85;;;;;;;;;;758828;184;918297;-65
2021/08/12 04:12:24;;;;;;;14.37;10.50;;;;;;;;;;757433;183;922477;-66
2021/08/12 04:14:50;;;;;;;20.92;11.07;;;;;;;;;;756252;181;918747;-65
2021/08/12 04:17:16;;;;;;;15.60;11.60;;;;;;;;;;762088;183;918705;-66
2021/08/12 04:19:42;;;;;;;17.10;12.03;;;;;;;;;;754075;184;920153;-65
2021/08/12 04:22:08;;;;;;;19.73;13.23;;;;;;;;;;755471;184;918320;-65
2021/08/12 04:24:34;;;;;;;16.87;14.37;;;;;;;;;;754726;183;914152;-65
2021/08/12 04:26:59;;;;;;;27.90;15.38;;;;;;;;;;761659;184;919440;-64
2021/08/12 04:29:25;;;;;;;25.17;16.83;;;;;;;;;;757200;183;920701;-65
2021/08/12 04:31:51;;;;;;;22.65;15.45;;;;;;;;;;754352;183;919585;-65
2021/08/12 04:34:17;;;;;;;28.20;17.07;;;;;;;;;;760458;183;1020450;-65
2021/08/12 04:36:43;;;;;;;20.47;16.60;;;;;;;;;;754279;183;918715;-64
2021/08/12 04:39:09;;;;;;;25.13;18.20;;;;;;;;;;754812;183;927053;-64
2021/08/12 04:41:35;;;;;;;23.20;17.60;;;;;;;;;;759236;180;920545;-65
2021/08/12 04:44:00;;;;;;;32.30;18.00;;;;;;;;;;753062;184;920311;-65
2021/08/12 04:46:26;;;;;;;21.20;16.50;;;;;;;;;;753759;184;920581;-65
2021/08/12 04:48:52;;;;;;;27.27;18.43;;;;;;;;;;754610;182;917687;-64
2021/08/12 04:51:18;;;;;;;24.40;18.47;;;;;;;;;;765130;180;918828;-65
2021/08/12 04:53:44;;;;;;;23.90;17.30;;;;;;;;;;753846;181;920409;-64
2021/08/12 04:56:10;;;;;;;22.73;16.50;;;;;;;;;;753403;184;915689;-64
2021/08/12 04:58:35;;;;;;;20.80;16.40;;;;;;;;;;760158;184;915896;-65
2021/08/12 05:01:01;;;;;;;22.00;18.70;;;;;;;;;;757322;184;915327;-64
2021/08/12 05:03:27;;;;;;;19.90;16.93;;;;;;;;;;754112;184;919972;-65
2021/08/12 05:05:59;;;;;;;17.50;14.70;;;;;;;;;;760275;181;918098;-64
2021/08/12 05:08:25;;;;;;;26.30;16.20;;;;;;;;;;755546;184;924384;-64
2021/08/12 05:10:51;;;;;;;22.10;16.53;;;;;;;;;;754505;182;915564;-65
2021/08/12 05:13:16;;;;;;;19.27;15.27;;;;;;;;;;754880;184;919487;-64
2021/08/12 05:15:42;;;;;;;19.23;14.97;;;;;;;;;;760944;184;910071;-65
2021/08/12 05:18:08;;;;;;;20.93;16.07;;;;;;;;;;753745;184;915019;-64
2021/08/12 05:20:34;;;;;;;22.05;15.88;;;;;;;;;;753514;183;916434;-66
2021/08/12 05:23:00;;;;;;;19.77;16.90;;;;;;;;;;761235;182;918206;-65
2021/08/12 05:25:26;;;;;;;19.80;14.57;;;;;;;;;;756624;184;917823;-66
2021/08/12 05:27:51;;;;;;;19.20;15.00;;;;;;;;;;754774;183;919360;-65
2021/08/12 05:30:17;;;;;;;21.00;14.97;;;;;;;;;;760458;181;923980;-65
2021/08/12 05:32:43;;;;;;;21.50;14.40;;;;;;;;;;756570;183;919299;-66
2021/08/12 05:35:09;;;;;;;18.17;13.90;;;;;;;;;;757610;183;918535;-65
2021/08/12 05:37:35;;;;;;;19.47;13.43;;;;;;;;;;754249;183;919046;-67
2021/08/12 05:40:01;;;;;;;15.33;12.20;;;;;;;;;;759343;183;919403;-64
2021/08/12 05:42:27;;;;;;;17.23;13.17;;;;;;;;;;754789;183;920515;-66
2021/08/12 05:44:53;;;;;;;17.53;12.10;;;;;;;;;;753628;183;920018;-65
2021/08/12 05:47:18;;;;;;;15.50;11.23;;;;;;;;;;760345;183;918443;-65
2021/08/12 05:49:44;;;;;;;14.63;10.77;;;;;;;;;;755216;183;920111;-67
2021/08/12 05:52:10;;;;;;;15.43;9.60;;;;;;;;;;755577;183;919754;-64
2021/08/12 05:54:36;;;;;;;21.90;12.10;;;;;;;;;;759649;184;918589;-65
2021/08/12 05:57:02;;;;;;;18.30;11.83;;;;;;;;;;756172;183;917859;-64
2021/08/12 05:59:28;;;;;;;14.10;9.82;;;;;;;;;;754439;181;931760;-65
2021/08/12 06:01:53;;;;;;;13.60;9.23;;;;;;;;;;753442;185;919630;-65
2021/08/12 06:04:19;;;;;;;17.10;9.73;;;;;;;;;;760883;181;917416;-64
2021/08/12 06:06:45;;;;;;;12.53;9.80;;;;;;;;;;752499;184;918629;-63
2021/08/12 06:09:11;;;;;;;11.83;9.40;;;;;;;;;;754131;184;918602;-65
2021/08/12 06:11:37;;;;;;;11.67;10.47;;;;;;;;;;759502;185;919223;-64
2021/08/12 06:14:03;;;;;;;16.07;9.30;;;;;;;;;;756643;184;919127;-65
2021/08/12 06:16:29;;;;;;;11.83;9.50;;;;;;;;;;753551;181;1007699;-64
2021/08/12 06:18:54;;;;;;;16.40;11.10;;;;;;;;;;759552;184;919089;-65
2021/08/12 06:21:22;;;;;;;14.23;9.20;;;;;;;;;;755639;184;919690;-65
2021/08/12 06:23:46;;;;;;;15.60;9.37;;;;;;;;;;755430;184;919234;-64
2021/08/12 06:26:12;;;;;;;11.63;8.60;;;;;;;;;;760673;184;918605;-66
2021/08/12 06:28:38;;;;;;;15.80;9.50;;;;;;;;;;754030;183;938176;-65
2021/08/12 06:31:04;;;;;;;11.47;9.23;;;;;;;;;;752348;182;918682;-64
2021/08/12 06:33:29;;;;;;;13.90;9.47;;;;;;;;;;754835;184;919934;-65
2021/08/12 06:35:55;;;;;;;10.48;9.10;;;;;;;;;;761773;183;921291;-66
2021/08/12 06:38:21;;;;;;;13.17;9.20;;;;;;;;;;757791;184;919016;-66
2021/08/12 06:40:47;;;;;;;16.23;9.07;;;;;;;;;;755604;183;920912;-66
2021/08/12 06:43:14;;;;;;;11.37;8.83;;;;;;;;;;759824;184;920632;-65
2021/08/12 06:45:39;;;;;;;12.67;8.20;;;;;;;;;;757682;181;916802;-65
2021/08/12 06:48:05;;;;;;;13.02;9.75;;;;;;;;;;755736;183;916569;-65
2021/08/12 06:50:31;;;;;;;16.07;9.87;;;;;;;;;;759150;183;915093;-66
2021/08/12 06:52:56;;;;;;;11.67;9.40;;;;;;;;;;754062;183;919669;-65
2021/08/12 06:55:22;;;;;;;10.50;8.23;;;;;;;;;;752940;183;921285;-66
2021/08/12 06:57:48;;;;;;;10.20;8.20;;;;;;;;;;754281;183;919044;-65
2021/08/12 07:00:14;;;;;;;13.70;7.83;;;;;;;;;;757433;184;920016;-65
2021/08/12 07:02:40;;;;;;;9.87;7.90;;;;;;;;;;754529;182;919482;-64
2021/08/12 07:05:06;;;;;;;13.00;8.88;;;;;;;;;;753853;183;919575;-65
2021/08/12 07:07:32;;;;;;;9.43;6.55;;;;;;;;;;759687;184;919048;-65
2021/08/12 07:09:58;;;;;;;13.30;6.87;;;;;;;;;;755715;184;919100;-66
2021/08/12 07:12:24;;;;;;;8.57;6.73;;;;;;;;;;753126;184;1013187;-66
2021/08/12 07:14:50;;;;;;;11.23;7.23;;;;;;;;;;758590;184;926518;-65
2021/08/12 07:17:15;;;;;;;14.43;8.10;;;;;;;;;;754219;184;921211;-66
2021/08/12 07:19:41;;;;;;;9.90;7.07;;;;;;;;;;753482;184;917233;-65
2021/08/12 07:22:07;;;;;;;10.27;7.00;;;;;;;;;;753543;184;915927;-65
2021/08/12 07:24:33;;;;;;;9.23;6.50;;;;;;;;;;763300;182;914117;-67
2021/08/12 07:26:59;;;;;;;14.43;7.80;;;;;;;;;;756438;184;919570;-65
2021/08/12 07:29:25;;;;;;;9.97;6.70;;;;;;;;;;755124;184;918257;-65
2021/08/12 07:31:51;;;;;;;9.10;6.23;;;;;;;;;;759650;184;919941;-65
2021/08/12 07:34:17;;;;;;;11.40;6.83;;;;;;;;;;754362;184;920054;-67
2021/08/12 07:36:44;;;;;;;8.13;5.63;;;;;;;;;;757160;184;918094;-66
2021/08/12 07:39:09;;;;;;;9.10;5.73;;;;;;;;;;762473;184;631118;-66
2021/08/12 07:41:35;;;;;;;9.30;6.43;;;;;;;;;;754926;184;1660975;-66
2021/08/12 07:44:01;;;;;;;9.83;6.00;;;;;;;;;;757819;184;919139;-65
2021/08/12 07:46:26;;;;;;;7.50;5.93;;;;;;;;;;761975;183;650248;-66
2021/08/12 07:48:53;;;;;;;16.37;5.67;;;;;;;;;;759338;184;619980;-66
2021/08/12 07:51:20;;;;;;;7.80;5.20;;;;;;;;;;756333;183;918932;-64
2021/08/12 07:53:45;;;;;;;8.52;5.68;;;;;;;;;;755658;181;918480;-66
2021/08/12 07:56:11;;;;;;;8.33;5.17;;;;;;;;;;763649;183;629043;-66
2021/08/12 07:58:36;;;;;;;8.20;5.67;;;;;;;;;;759870;183;632545;-66
2021/08/12 08:01:03;;;;;;;13.40;5.87;;;;;;;;;;757290;183;918936;-65
2021/08/12 08:03:27;;;;;;;7.00;4.90;;;;;;;;;;761654;183;920254;-65
2021/08/12 08:05:53;;;;;;;7.73;5.87;;;;;;;;;;753341;182;920811;-66
2021/08/12 08:08:19;;;;;;;8.27;6.80;;;;;;;;;;754293;184;918490;-65
2021/08/12 08:10:45;;;;;;;10.83;4.70;;;;;;;;;;758007;183;922506;-68
2021/08/12 08:13:11;;;;;;;5.90;4.73;;;;;;;;;;753419;184;919152;-65
2021/08/12 08:15:36;;;;;;;7.60;5.33;;;;;;;;;;754066;183;918377;-66
2021/08/12 08:18:02;;;;;;;6.90;5.80;;;;;;;;;;753131;184;919670;-66
2021/08/12 08:20:28;;;;;;;7.70;4.73;;;;;;;;;;760513;184;915118;-66
2021/08/12 08:22:54;;;;;;;9.70;5.03;;;;;;;;;;756380;182;913987;-66
2021/08/12 08:25:20;;;;;;;8.57;4.80;;;;;;;;;;753278;184;912316;-65
2021/08/12 08:27:46;;;;;;;7.28;5.18;;;;;;;;;;759348;183;913573;-65
2021/08/12 08:30:14;;;;;;;6.33;4.37;;;;;;;;;;752407;184;920415;-65
2021/08/12 08:32:38;;;;;;;5.30;4.07;;;;;;;;;;755277;184;915177;-65
2021/08/12 08:35:04;;;;;;;10.03;5.37;;;;;;;;;;758491;185;918911;-67
2021/08/12 08:37:30;;;;;;;7.83;4.07;;;;;;;;;;755298;184;918354;-65
2021/08/12 08:39:56;;;;;;;7.37;5.20;;;;;;;;;;750947;184;1021810;-66
2021/08/12 08:42:21;;;;;;;9.47;5.60;;;;;;;;;;752923;184;918719;-66
2021/08/12 08:44:47;;;;;;;9.70;5.00;;;;;;;;;;750111;184;919424;-66
2021/08/12 08:47:13;;;;;;;7.63;5.10;;;;;;;;;;753403;184;919770;-65
2021/08/12 08:49:39;;;;;;;7.43;5.23;;;;;;;;;;752967;184;925563;-67
2021/08/12 08:52:05;;;;;;;10.20;5.43;;;;;;;;;;759483;184;918268;-66
2021/08/12 08:54:31;;;;;;;12.20;4.87;;;;;;;;;;753829;184;918825;-66
2021/08/12 08:56:57;;;;;;;6.70;4.37;;;;;;;;;;754707;183;1021066;-65
2021/08/12 08:59:24;;;;;;;11.50;4.83;;;;;;;;;;761785;184;918844;-67
2021/08/12 09:01:49;;;;;;;9.07;5.77;;;;;;;;;;756278;184;918709;-67
2021/08/12 09:04:14;;;;;;;6.47;4.67;;;;;;;;;;756685;183;919092;-66
2021/08/12 09:06:40;;;;;;;8.50;4.77;;;;;;;;;;761545;183;919475;-66
2021/08/12 09:09:06;;;;;;;6.63;4.60;;;;;;;;;;755838;184;918928;-66
2021/08/12 09:11:32;;;;;;;7.60;4.90;;;;;;;;;;753254;183;918871;-67
2021/08/12 09:13:58;;;;;;;8.30;5.20;;;;;;;;;;756179;183;919408;-66
2021/08/12 09:16:28;;;;;;;10.37;5.03;;;;;;;;;;759359;183;919071;-67
2021/08/12 09:19:00;;;;;;;8.20;3.93;;;;;;;;;;756613;183;918673;-68
2021/08/12 09:21:26;;;;;;;8.37;4.70;;;;;;;;;;754877;182;920387;-67
2021/08/12 09:23:55;;;;;;;5.67;4.20;;;;;;;;;;753073;184;918862;-66
2021/08/12 09:26:22;;;;;;;5.70;4.10;;;;;;;;;;759185;183;922529;-67
2021/08/12 09:28:47;;;;;;;7.45;4.00;;;;;;;;;;757505;183;919542;-68
2021/08/12 09:31:13;;;;;;;6.80;4.10;;;;;;;;;;755014;184;919127;-68
2021/08/12 09:33:52;;;;;;;5.20;4.33;;;;;;;;;;760154;184;918919;-67
2021/08/12 09:36:19;;;;;;;6.17;4.03;;;;;;;;;;758347;184;944427;-66
2021/08/12 09:38:45;;;;;;;7.87;4.10;;;;;;;;;;752606;184;919433;-67
2021/08/12 09:41:11;;;;;;;6.33;3.87;;;;;;;;;;754202;184;918855;-67
2021/08/12 09:43:37;;;;;;;10.27;4.07;;;;;;;;;;761554;184;626203;-67
2021/08/12 09:46:03;;;;;;;6.93;4.30;;;;;;;;;;760617;184;622792;-67
2021/08/12 09:48:29;;;;;;;6.17;4.20;;;;;;;;;;758745;184;636432;-70
2021/08/12 09:50:59;;;;;;;6.03;4.43;;;;;;;;;;758271;181;621806;-69
2021/08/12 09:53:24;;;;;;;8.40;4.33;;;;;;;;;;761764;184;629363;-68
2021/08/12 09:55:51;;;;;;;8.90;4.50;;;;;;;;;;758083;184;628354;-69
2021/08/12 09:58:18;;;;;;;6.00;4.27;;;;;;;;;;758610;184;619185;-68
2021/08/12 10:00:44;;;;;;;5.10;4.20;;;;;;;;;;761462;184;613249;-68
2021/08/12 10:03:15;;;;;;;7.30;5.00;;;;;;;;;;757118;184;740183;-68
2021/08/12 10:05:41;;;;;;;7.17;3.93;;;;;;;;;;758120;184;629076;-68
2021/08/12 10:08:07;;;;;;;7.60;4.50;;;;;;;;;;760354;183;626290;-68
2021/08/12 10:10:33;;;;;;;5.33;3.90;;;;;;;;;;765614;183;629970;-68
2021/08/12 10:12:59;;;;;;;6.20;4.50;;;;;;;;;;760507;183;619293;-68
2021/08/12 10:15:25;;;;;;;6.50;4.30;;;;;;;;;;748446;183;628073;-67
2021/08/12 10:17:51;;;;;;;8.50;4.00;;;;;;;;;;762931;183;625202;-69
2021/08/12 10:20:17;;;;;;;6.63;4.30;;;;;;;;;;760238;183;621977;-67
2021/08/12 10:22:43;;;;;;;5.67;3.80;;;;;;;;;;759182;182;629893;-69
2021/08/12 10:25:09;;;;;;;5.60;4.00;;;;;;;;;;759045;180;630266;-69
2021/08/12 10:27:35;;;;;;;5.40;4.40;;;;;;;;;;762191;183;622997;-70
2021/08/12 10:30:00;;;;;;;8.13;4.73;;;;;;;;;;758049;182;627438;-69
2021/08/12 10:32:26;;;;;;;6.53;4.07;;;;;;;;;;758350;183;628775;-68
2021/08/12 10:34:52;;;;;;;6.73;4.30;;;;;;;;;;763161;184;631110;-68
2021/08/12 10:37:18;;;;;;;5.10;4.30;;;;;;;;;;762068;183;618935;-70
2021/08/12 10:39:44;;;;;;;6.63;4.00;;;;;;;;;;759610;183;641311;-70
2021/08/12 10:42:10;;;;;;;8.90;4.43;;;;;;;;;;761367;182;621216;-68
2021/08/12 10:44:36;;;;;;;7.20;4.40;;;;;;;;;;760347;183;637321;-68
2021/08/12 10:47:01;;;;;;;6.90;4.13;;;;;;;;;;759566;184;631842;-69
2021/08/12 10:49:28;;;;;;;6.63;3.97;;;;;;;;;;757798;184;618651;-69
2021/08/12 10:51:58;;;;;;;10.00;4.90;;;;;;;;;;755753;184;616172;-69
2021/08/12 10:54:23;;;;;;;8.63;4.93;;;;;;;;;;758286;184;634310;-68
2021/08/12 10:56:49;;;;;;;7.17;4.03;;;;;;;;;;757426;181;608738;-68
2021/08/12 10:59:15;;;;;;;7.83;3.90;;;;;;;;;;760623;184;919312;-67
2021/08/12 11:01:42;;;;;;;10.50;3.80;;;;;;;;;;758571;182;631398;-66
2021/08/12 11:04:07;;;;;;;8.80;4.50;;;;;;;;;;759179;181;625165;-69
2021/08/12 11:06:35;;;;;;;6.80;5.37;;;;;;;;;;764411;184;626543;-68
2021/08/12 11:09:02;;;;;;;7.60;4.80;;;;;;;;;;758619;184;627533;-69
2021/08/12 11:11:42;;;;;;;9.63;4.73;;;;;;;;;;758243;183;678298;-69
2021/08/12 11:14:07;;;;;;;7.20;4.00;;;;;;;;;;758818;183;637558;-69
2021/08/12 11:16:39;;;;;;;7.37;4.20;;;;;;;;;;759144;184;618195;-68
2021/08/12 11:19:05;;;;;;;12.73;5.17;;;;;;;;;;761471;184;627533;-70
2021/08/12 11:21:39;;;;;;;5.20;4.10;;;;;;;;;;762695;183;629504;-68
2021/08/12 11:24:05;;;;;;;7.50;4.27;;;;;;;;;;760382;183;626661;-69
2021/08/12 11:26:36;;;;;;;4.70;4.17;;;;;;;;;;760796;183;608619;-69
2021/08/12 11:29:02;;;;;;;6.03;4.53;;;;;;;;;;762767;183;618682;-69
2021/08/12 11:31:42;;;;;;;6.70;4.10;;;;;;;;;;759637;183;639710;-69
2021/08/12 11:34:08;;;;;;;6.90;4.27;;;;;;;;;;754374;184;623879;-69
2021/08/12 11:36:35;;;;;;;9.67;4.40;;;;;;;;;;758675;181;628661;-69
2021/08/12 11:39:01;;;;;;;9.25;3.95;;;;;;;;;;760260;184;630936;-68
2021/08/12 11:41:27;;;;;;;7.90;4.30;;;;;;;;;;759000;182;617795;-68
2021/08/12 11:43:53;;;;;;;9.00;4.63;;;;;;;;;;757343;182;631073;-68
2021/08/12 11:46:19;;;;;;;6.10;3.87;;;;;;;;;;757375;183;830739;-68
2021/08/12 11:48:45;;;;;;;5.40;4.00;;;;;;;;;;763523;183;635477;-69
2021/08/12 11:51:11;;;;;;;9.00;4.40;;;;;;;;;;761781;181;629152;-68
2021/08/12 11:53:37;;;;;;;6.00;4.70;;;;;;;;;;758648;181;631244;-68
2021/08/12 11:56:12;;;;;;;5.40;4.40;;;;;;;;;;763106;183;626490;-68
2021/08/12 11:58:38;;;;;;;5.10;4.10;;;;;;;;;;756109;184;626194;-68
2021/08/12 12:01:16;;;;;;;5.70;4.20;;;;;;;;;;757735;184;627775;-67
2021/08/12 12:03:42;;;;;;;11.00;4.63;;;;;;;;;;759571;184;620306;-68
2021/08/12 12:06:07;;;;;;;6.33;5.00;;;;;;;;;;757151;181;629861;-69
2021/08/12 12:08:33;;;;;;;5.00;4.20;;;;;;;;;;761737;181;648766;-68
2021/08/12 12:11:05;;;;;;;7.77;5.23;;;;;;;;;;759256;184;619940;-69
2021/08/12 12:13:31;;;;;;;5.90;4.17;;;;;;;;;;759406;184;631362;-69
2021/08/12 12:15:57;;;;;;;8.10;4.60;;;;;;;;;;759806;184;918937;-69
2021/08/12 12:18:30;;;;;;;5.80;4.33;;;;;;;;;;759384;184;623010;-67
2021/08/12 12:20:55;;;;;;;7.77;4.80;;;;;;;;;;762288;181;919852;-68
2021/08/12 12:23:21;;;;;;;6.20;4.47;;;;;;;;;;756862;182;814493;-69
2021/08/12 12:25:46;;;;;;;6.83;4.60;;;;;;;;;;762909;182;619512;-68
2021/08/12 12:28:12;;;;;;;6.60;4.40;;;;;;;;;;756208;182;920168;-68
2021/08/12 12:30:38;;;;;;;10.50;3.97;;;;;;;;;;758648;181;629183;-70
2021/08/12 12:33:05;;;;;;;10.87;4.90;;;;;;;;;;762977;183;918987;-69
2021/08/12 12:35:31;;;;;;;6.17;4.23;;;;;;;;;;759404;184;917520;-69
2021/08/12 12:37:56;;;;;;;6.30;4.47;;;;;;;;;;755616;183;918431;-69
2021/08/12 12:40:22;;;;;;;4.30;3.77;;;;;;;;;;759823;181;613273;-69
2021/08/12 12:42:49;;;;;;;5.20;3.93;;;;;;;;;;763258;184;623818;-69
2021/08/12 12:45:15;;;;;;;4.97;3.93;;;;;;;;;;760264;184;630486;-68
2021/08/12 12:47:41;;;;;;;6.47;3.90;;;;;;;;;;759730;184;630247;-70
2021/08/12 12:50:08;;;;;;;7.83;4.30;;;;;;;;;;762725;184;626348;-69
2021/08/12 12:52:34;;;;;;;6.50;4.30;;;;;;;;;;759040;181;626232;-68
2021/08/12 12:55:00;;;;;;;6.20;4.20;;;;;;;;;;754382;183;919208;-69
2021/08/12 12:57:28;;;;;;;5.87;4.30;;;;;;;;;;762363;182;645993;-69
2021/08/12 12:59:54;;;;;;;6.37;4.30;;;;;;;;;;754767;181;917443;-69
2021/08/12 13:02:20;;;;;;;9.33;3.70;;;;;;;;;;758845;181;624237;-69
2021/08/12 13:04:46;;;;;;;5.43;4.13;;;;;;;;;;759024;183;633909;-70
2021/08/12 13:07:17;;;;;;;5.17;4.10;;;;;;;;;;763973;181;622906;-69
2021/08/12 13:09:43;;;;;;;8.80;4.43;;;;;;;;;;760580;184;626601;-68
2021/08/12 13:12:15;;;;;;;5.50;4.13;;;;;;;;;;758987;184;633773;-71
2021/08/12 13:14:41;;;;;;;5.87;4.17;;;;;;;;;;758253;184;622040;-68
2021/08/12 13:17:07;;;;;;;6.93;4.80;;;;;;;;;;761931;184;626857;-70
2021/08/12 13:19:32;;;;;;;6.80;5.07;;;;;;;;;;756211;184;624754;-71
2021/08/12 13:21:58;;;;;;;7.60;4.37;;;;;;;;;;758911;184;608717;-68
2021/08/12 13:24:30;;;;;;;6.10;4.27;;;;;;;;;;760797;184;626667;-69
2021/08/12 13:26:56;;;;;;;4.87;3.47;;;;;;;;;;762208;184;628747;-70
2021/08/12 13:29:26;;;;;;;5.77;3.83;;;;;;;;;;758411;184;620966;-69
2021/08/12 13:31:52;;;;;;;5.73;4.33;;;;;;;;;;759261;184;634554;-68
2021/08/12 13:34:18;;;;;;;7.30;4.47;;;;;;;;;;759913;184;630165;-70
2021/08/12 13:36:44;;;;;;;5.70;3.87;;;;;;;;;;758970;182;641861;-70
2021/08/12 13:39:10;;;;;;;6.60;4.53;;;;;;;;;;759510;184;627414;-66
2021/08/12 13:41:41;;;;;;;5.93;3.80;;;;;;;;;;763064;182;619422;-68
2021/08/12 13:44:07;;;;;;;6.90;4.53;;;;;;;;;;759596;183;633229;-69
2021/08/12 13:46:33;;;;;;;7.83;4.07;;;;;;;;;;760628;184;636819;-68
2021/08/12 13:48:59;;;;;;;13.07;4.50;;;;;;;;;;759636;181;619988;-70
2021/08/12 13:51:29;;;;;;;7.90;4.50;;;;;;;;;;764218;183;613756;-70
2021/08/12 13:53:51;;;;;;;9.47;4.80;;;;;;;;;;759999;183;633310;-70
2021/08/12 13:56:16;;;;;;;8.63;4.47;;;;;;;;;;760733;183;622516;-68
2021/08/12 13:58:42;;;;;;;6.07;4.90;;;;;;;;;;763655;183;618570;-70
2021/08/12 14:01:08;;;;;;;5.23;4.03;;;;;;;;;;761374;184;636542;-68
2021/08/12 14:03:34;;;;;;;7.77;4.47;;;;;;;;;;761171;183;674544;-70
2021/08/12 14:06:00;;;;;;;10.30;3.93;;;;;;;;;;758138;182;634909;-69
2021/08/12 14:08:26;;;;;;;5.73;4.27;;;;;;;;;;761507;183;617227;-69
2021/08/12 14:10:51;;;;;;;7.47;4.80;;;;;;;;;;759560;182;626546;-69
2021/08/12 14:13:17;;;;;;;5.60;4.40;;;;;;;;;;757556;184;629417;-70